createdAt,value
2018-07-06T00:02:38.126Z,4.80
2018-07-06T00:05:17.816Z,4.87
2018-07-06T00:07:57.413Z,4.77
2018-07-06T00:10:37.231Z,5.07
2018-07-06T00:13:16.941Z,5.00
2018-07-06T00:15:56.747Z,4.80
2018-07-06T00:18:36.540Z,5.00
2018-07-06T00:21:16.279Z,5.53
2018-07-06T00:23:56.093Z,5.40
2018-07-06T00:26:35.960Z,5.33
2018-07-06T00:29:15.604Z,4.93
2018-07-06T00:31:55.548Z,5.30
2018-07-06T00:34:35.232Z,5.40
2018-07-06T00:37:15.023Z,5.83
2018-07-06T00:39:54.821Z,5.37
2018-07-06T00:42:34.817Z,5.40
2018-07-06T00:45:14.545Z,6.30
2018-07-06T00:47:54.612Z,5.13
2018-07-06T00:50:34.443Z,5.10
2018-07-06T00:53:14.206Z,5.50
2018-07-06T00:55:53.960Z,5.33
2018-07-06T00:58:33.901Z,5.67
2018-07-06T01:01:13.520Z,5.33
2018-07-06T01:03:53.252Z,6.17
2018-07-06T01:06:33.063Z,5.47
2018-07-06T01:09:12.673Z,6.30
2018-07-06T01:11:52.269Z,6.27
2018-07-06T01:14:32.052Z,5.93
2018-07-06T01:17:15.931Z,5.80
2018-07-06T01:19:56.701Z,6.60
2018-07-06T01:22:36.577Z,5.67
2018-07-06T01:25:16.264Z,5.83
2018-07-06T01:27:56.092Z,5.90
2018-07-06T01:30:35.861Z,6.00
2018-07-06T01:33:15.645Z,6.63
2018-07-06T01:35:55.544Z,6.67
2018-07-06T01:38:35.112Z,7.23
2018-07-06T01:41:15.024Z,6.93
2018-07-06T01:43:54.860Z,6.57
2018-07-06T01:46:34.747Z,6.53
2018-07-06T01:49:14.601Z,6.80
2018-07-06T01:51:54.620Z,6.70
2018-07-06T01:54:34.240Z,6.70
2018-07-06T01:57:13.897Z,6.07
2018-07-06T01:59:53.633Z,7.33
2018-07-06T02:02:33.180Z,7.67
2018-07-06T02:05:12.917Z,7.30
2018-07-06T02:07:52.679Z,7.30
2018-07-06T02:10:32.376Z,8.80
2018-07-06T02:13:12.376Z,7.10
2018-07-06T02:15:52.072Z,7.73
2018-07-06T02:18:31.956Z,8.70
2018-07-06T02:21:11.664Z,8.90
2018-07-06T02:23:51.444Z,9.50
2018-07-06T02:26:31.257Z,10.30
2018-07-06T02:29:10.844Z,10.37
2018-07-06T02:31:50.596Z,9.70
2018-07-06T02:34:30.425Z,9.93
2018-07-06T02:37:10.273Z,10.67
2018-07-06T02:39:49.915Z,12.20
2018-07-06T02:42:29.647Z,11.30
2018-07-06T02:45:09.496Z,12.10
2018-07-06T02:47:49.200Z,10.80
2018-07-06T02:50:29.207Z,10.63
2018-07-06T02:53:09.112Z,11.50
2018-07-06T02:55:48.929Z,12.40
2018-07-06T02:58:28.701Z,12.27
2018-07-06T03:01:08.264Z,11.97
2018-07-06T03:03:47.996Z,13.53
2018-07-06T03:06:27.871Z,12.20
2018-07-06T03:09:07.925Z,11.60
2018-07-06T03:11:47.576Z,12.63
2018-07-06T03:14:27.220Z,12.37
2018-07-06T03:17:06.971Z,12.17
2018-07-06T03:19:46.480Z,11.20
2018-07-06T03:22:26.267Z,11.77
2018-07-06T03:25:05.948Z,12.07
2018-07-06T03:27:45.402Z,12.90
2018-07-06T03:30:25.232Z,12.60
2018-07-06T03:33:04.988Z,11.53
2018-07-06T03:35:44.638Z,11.67
2018-07-06T03:38:24.404Z,13.17
2018-07-06T03:41:04.051Z,12.50
2018-07-06T03:43:43.775Z,12.10
2018-07-06T03:46:23.353Z,12.77
2018-07-06T03:49:03.063Z,13.43
2018-07-06T03:51:42.807Z,12.90
2018-07-06T03:54:22.719Z,13.50
2018-07-06T03:57:02.810Z,12.63
2018-07-06T03:59:42.563Z,12.40
2018-07-06T04:02:23.063Z,13.17
2018-07-06T04:05:02.788Z,11.47
2018-07-06T04:07:42.684Z,12.53
2018-07-06T04:10:22.445Z,13.80
2018-07-06T04:13:02.268Z,12.60
2018-07-06T04:15:42.025Z,13.20
2018-07-06T04:18:21.888Z,12.13
2018-07-06T04:21:01.601Z,12.40
2018-07-06T04:23:41.469Z,12.17
2018-07-06T04:26:21.160Z,11.70
2018-07-06T04:29:00.983Z,12.90
2018-07-06T04:31:40.761Z,11.90
2018-07-06T04:34:20.372Z,13.03
2018-07-06T04:36:59.968Z,13.50
2018-07-06T04:39:39.790Z,11.70
2018-07-06T04:42:19.652Z,12.63
2018-07-06T04:44:59.309Z,12.40
2018-07-06T04:47:39.040Z,13.10
2018-07-06T04:50:18.788Z,12.93
2018-07-06T04:52:58.548Z,13.50
2018-07-06T04:55:38.415Z,12.17
2018-07-06T04:58:18.006Z,12.80
2018-07-06T05:00:57.745Z,13.87
2018-07-06T05:03:37.543Z,12.70
2018-07-06T05:06:17.180Z,14.07
2018-07-06T05:08:57.024Z,14.37
2018-07-06T05:11:36.809Z,14.20
2018-07-06T05:14:16.574Z,14.47
2018-07-06T05:16:56.677Z,14.90
2018-07-06T05:19:36.364Z,15.53
2018-07-06T05:22:16.145Z,14.17
2018-07-06T05:24:55.918Z,14.90
2018-07-06T05:27:35.529Z,18.60
2018-07-06T05:30:15.404Z,16.33
2018-07-06T05:32:55.336Z,15.77
2018-07-06T05:35:35.120Z,16.07
2018-07-06T05:38:15.135Z,16.23
2018-07-06T05:40:54.879Z,17.57
2018-07-06T05:43:34.781Z,17.23
2018-07-06T05:46:14.565Z,16.50
2018-07-06T05:48:54.558Z,16.53
2018-07-06T05:51:34.289Z,17.30
2018-07-06T05:54:14.009Z,17.60
2018-07-06T05:56:53.864Z,17.77
2018-07-06T05:59:33.488Z,17.30
2018-07-06T06:02:13.205Z,18.47
2018-07-06T06:04:52.996Z,18.27
2018-07-06T06:07:23.285Z,17.90
2018-07-06T06:09:51.967Z,17.63
2018-07-06T06:12:20.688Z,17.73
2018-07-06T06:14:49.772Z,19.50
2018-07-06T06:17:18.169Z,18.07
2018-07-06T06:19:46.560Z,17.87
2018-07-06T06:22:14.970Z,20.50
2018-07-06T06:24:43.709Z,20.13
2018-07-06T06:27:12.191Z,18.23
2018-07-06T06:29:40.668Z,19.20
2018-07-06T06:32:09.576Z,17.27
2018-07-06T06:34:38.036Z,19.23
2018-07-06T06:37:06.460Z,18.80
2018-07-06T06:39:34.939Z,20.23
2018-07-06T06:42:03.569Z,20.77
2018-07-06T06:44:32.061Z,18.60
2018-07-06T06:47:00.816Z,18.57
2018-07-06T06:49:30.725Z,19.07
2018-07-06T06:51:59.540Z,17.70
2018-07-06T06:54:28.191Z,20.40
2018-07-06T06:56:56.660Z,19.83
2018-07-06T06:59:25.551Z,19.23
2018-07-06T07:01:53.979Z,19.13
2018-07-06T07:04:22.657Z,18.23
2018-07-06T07:06:51.232Z,18.23
2018-07-06T07:09:19.712Z,18.23
2018-07-06T07:11:48.416Z,18.47
2018-07-06T07:14:17.008Z,18.20
2018-07-06T07:16:45.392Z,18.07
2018-07-06T07:19:13.863Z,18.60
2018-07-06T07:21:42.249Z,17.53
2018-07-06T07:24:10.750Z,17.50
2018-07-06T07:26:39.185Z,18.70
2018-07-06T07:29:07.780Z,18.87
2018-07-06T07:31:36.227Z,15.70
2018-07-06T07:34:04.682Z,16.50
2018-07-06T07:36:33.169Z,15.50
2018-07-06T07:39:01.674Z,13.67
2018-07-06T07:41:30.090Z,12.27
2018-07-06T07:43:58.529Z,13.67
2018-07-06T07:46:27.013Z,12.93
2018-07-06T07:48:55.372Z,13.10
2018-07-06T07:52:02.780Z,13.20
2018-07-06T07:54:39.676Z,12.30
2018-07-06T07:57:08.613Z,13.63
2018-07-06T07:59:37.158Z,12.57
2018-07-06T08:02:05.612Z,13.30
2018-07-06T08:04:34.070Z,13.13
2018-07-06T08:07:02.809Z,14.13
2018-07-06T08:09:31.700Z,13.90
2018-07-06T08:12:01.369Z,13.17
2018-07-06T08:14:29.854Z,13.73
2018-07-06T08:16:58.248Z,14.30
2018-07-06T08:19:26.669Z,12.90
2018-07-06T08:21:55.691Z,13.80
2018-07-06T08:24:24.141Z,15.07
2018-07-06T08:26:52.846Z,14.83
2018-07-06T08:29:21.281Z,15.23
2018-07-06T08:31:49.694Z,15.17
2018-07-06T08:34:29.564Z,15.20
2018-07-06T08:37:36.881Z,14.73
2018-07-06T08:40:05.356Z,15.33
2018-07-06T08:42:34.841Z,13.67
2018-07-06T08:45:03.740Z,15.50
2018-07-06T08:47:32.252Z,14.17
2018-07-06T08:50:01.401Z,14.57
2018-07-06T08:52:30.098Z,15.70
2018-07-06T08:54:58.496Z,16.10
2018-07-06T08:57:28.294Z,15.70
2018-07-06T08:59:56.733Z,14.43
2018-07-06T09:02:25.573Z,12.57
2018-07-06T09:04:55.067Z,13.17
2018-07-06T09:07:23.841Z,13.17
2018-07-06T09:09:52.792Z,13.73
2018-07-06T09:12:21.260Z,15.20
2018-07-06T09:14:49.697Z,16.60
2018-07-06T09:17:19.100Z,15.77
2018-07-06T09:19:48.027Z,15.67
2018-07-06T09:22:17.401Z,12.83
2018-07-06T09:24:46.785Z,14.40
2018-07-06T09:27:15.330Z,12.10
2018-07-06T09:29:43.728Z,13.37
2018-07-06T09:32:12.164Z,13.40
2018-07-06T09:34:40.919Z,12.73
2018-07-06T09:37:09.725Z,14.33
2018-07-06T09:39:38.888Z,13.00
2018-07-06T09:42:07.357Z,12.43
2018-07-06T09:44:35.809Z,11.80
2018-07-06T09:47:04.324Z,11.90
2018-07-06T09:49:32.861Z,11.83
2018-07-06T09:52:01.305Z,11.87
2018-07-06T09:54:29.732Z,11.13
2018-07-06T09:56:58.473Z,12.87
2018-07-06T09:59:26.942Z,11.60
2018-07-06T10:01:55.380Z,13.10
2018-07-06T10:04:23.798Z,11.40
2018-07-06T10:06:52.244Z,12.17
2018-07-06T10:09:20.649Z,11.93
2018-07-06T10:11:49.274Z,13.43
2018-07-06T10:14:17.676Z,12.30
2018-07-06T10:16:46.153Z,12.13
2018-07-06T10:19:14.808Z,13.00
2018-07-06T10:21:43.228Z,10.17
2018-07-06T10:24:11.664Z,11.33
2018-07-06T10:26:40.084Z,10.03
2018-07-06T10:29:21.758Z,10.53
2018-07-06T10:32:21.377Z,10.43
2018-07-06T10:34:49.792Z,9.80
2018-07-06T10:37:18.997Z,11.00
2018-07-06T10:39:48.109Z,9.30
2018-07-06T10:42:16.569Z,9.17
2018-07-06T10:44:45.249Z,9.60
2018-07-06T10:47:13.711Z,10.50
2018-07-06T10:49:42.214Z,10.87
2018-07-06T10:52:11.453Z,9.30
2018-07-06T10:54:40.529Z,8.33
2018-07-06T10:57:09.188Z,8.53
2018-07-06T10:59:37.908Z,9.37
2018-07-06T11:02:06.634Z,10.40
2018-07-06T11:04:35.247Z,7.57
2018-07-06T11:07:03.658Z,7.70
2018-07-06T11:09:32.079Z,9.97
2018-07-06T11:12:00.501Z,9.20
2018-07-06T11:14:28.895Z,8.87
2018-07-06T11:16:57.283Z,9.80
2018-07-06T11:19:25.439Z,11.10
2018-07-06T11:21:53.911Z,9.13
2018-07-06T11:24:22.315Z,8.80
2018-07-06T11:26:50.748Z,9.07
2018-07-06T11:29:19.980Z,9.50
2018-07-06T11:31:48.517Z,9.70
2018-07-06T11:34:16.908Z,8.13
2018-07-06T11:36:45.376Z,11.43
2018-07-06T11:39:14.011Z,10.17
2018-07-06T11:41:42.510Z,9.07
2018-07-06T11:44:10.929Z,8.37
2018-07-06T11:46:39.368Z,8.60
2018-07-06T11:49:07.824Z,9.60
2018-07-06T11:51:36.255Z,9.70
2018-07-06T11:54:04.702Z,7.77
2018-07-06T11:56:33.141Z,8.77
2018-07-06T11:59:01.552Z,7.10
2018-07-06T12:01:30.105Z,8.87
2018-07-06T12:03:58.560Z,8.60
2018-07-06T12:06:26.908Z,6.90
2018-07-06T12:08:55.377Z,8.50
2018-07-06T12:11:23.777Z,6.90
2018-07-06T12:13:52.360Z,7.83
2018-07-06T12:16:20.753Z,7.20
2018-07-06T12:18:49.171Z,7.87
2018-07-06T12:21:17.772Z,7.83
2018-07-06T12:23:46.183Z,8.10
2018-07-06T12:26:14.573Z,8.80
2018-07-06T12:28:43.013Z,7.70
2018-07-06T12:31:11.424Z,7.30
2018-07-06T12:33:39.850Z,6.90
2018-07-06T12:36:08.350Z,8.07
2018-07-06T12:38:36.784Z,7.60
2018-07-06T12:41:05.411Z,6.73
2018-07-06T12:43:33.472Z,7.20
2018-07-06T12:46:01.920Z,5.93
2018-07-06T12:48:30.381Z,7.20
2018-07-06T12:50:58.808Z,6.03
2018-07-06T12:53:27.376Z,6.87
2018-07-06T12:55:55.845Z,7.60
2018-07-06T12:58:24.308Z,6.77
2018-07-06T13:00:53.056Z,7.40
2018-07-06T13:03:21.683Z,7.73
2018-07-06T13:05:50.167Z,6.57
2018-07-06T13:08:18.772Z,6.83
2018-07-06T13:10:47.220Z,6.67
2018-07-06T13:13:15.658Z,6.73
2018-07-06T13:15:44.237Z,7.10
2018-07-06T13:18:12.355Z,6.70
2018-07-06T13:20:40.772Z,6.73
2018-07-06T13:23:09.314Z,5.90
2018-07-06T13:25:37.709Z,6.40
2018-07-06T13:28:06.702Z,7.17
2018-07-06T13:30:35.231Z,6.87
2018-07-06T13:33:03.404Z,8.13
2018-07-06T13:35:31.828Z,6.67
2018-07-06T13:38:00.227Z,7.30
2018-07-06T13:40:28.690Z,6.10
2018-07-06T13:42:57.093Z,6.47
2018-07-06T13:45:25.624Z,7.03
2018-07-06T13:47:54.049Z,6.73
2018-07-06T13:50:22.633Z,5.97
2018-07-06T13:52:51.044Z,6.47
2018-07-06T13:55:19.452Z,6.93
2018-07-06T13:57:47.973Z,6.70
2018-07-06T14:00:16.386Z,6.90
2018-07-06T14:02:44.798Z,6.70
2018-07-06T14:05:13.274Z,7.07
2018-07-06T14:07:41.771Z,5.87
2018-07-06T14:10:10.468Z,6.63
2018-07-06T14:12:38.894Z,6.20
2018-07-06T14:15:07.301Z,6.20
2018-07-06T14:17:35.902Z,5.70
2018-07-06T14:20:04.342Z,6.13
2018-07-06T14:22:32.997Z,5.80
2018-07-06T14:25:01.407Z,5.47
2018-07-06T14:27:29.841Z,5.67
2018-07-06T14:29:58.267Z,6.20
2018-07-06T14:32:26.668Z,5.93
2018-07-06T14:34:55.387Z,6.03
2018-07-06T14:37:23.829Z,5.90
2018-07-06T14:39:52.226Z,5.50
2018-07-06T14:42:20.641Z,5.50
2018-07-06T14:44:49.021Z,5.27
2018-07-06T14:47:17.738Z,5.00
2018-07-06T14:49:46.093Z,5.20
2018-07-06T14:52:14.482Z,5.07
2018-07-06T14:54:42.904Z,5.10
2018-07-06T14:57:11.337Z,5.50
2018-07-06T14:59:39.768Z,4.53
2018-07-06T15:02:08.151Z,4.77
2018-07-06T15:04:36.547Z,5.50
2018-07-06T15:07:04.712Z,5.07
2018-07-06T15:09:33.139Z,5.33
2018-07-06T15:12:01.530Z,5.00
2018-07-06T15:14:29.956Z,4.90
2018-07-06T15:16:59.528Z,4.50
2018-07-06T15:19:28.006Z,5.20
2018-07-06T15:21:56.432Z,4.40
2018-07-06T15:24:24.575Z,5.00
2018-07-06T15:26:53.097Z,4.57
2018-07-06T15:29:21.546Z,4.50
2018-07-06T15:31:50.081Z,4.27
2018-07-06T15:34:18.492Z,3.97
2018-07-06T15:36:46.915Z,4.73
2018-07-06T15:39:15.416Z,3.90
2018-07-06T15:41:43.888Z,4.33
2018-07-06T15:44:12.537Z,4.10
2018-07-06T15:46:40.920Z,3.30
2018-07-06T15:49:09.123Z,3.10
2018-07-06T15:51:37.601Z,3.40
2018-07-06T15:54:06.028Z,4.13
2018-07-06T15:56:34.448Z,3.97
2018-07-06T15:59:02.948Z,3.97
2018-07-06T16:01:31.420Z,3.47
2018-07-06T16:03:59.846Z,3.50
2018-07-06T16:06:28.330Z,3.97
2018-07-06T16:08:56.757Z,3.07
2018-07-06T16:11:25.389Z,3.97
2018-07-06T16:13:53.856Z,3.50
2018-07-06T16:16:22.316Z,3.77
2018-07-06T16:18:50.943Z,3.47
2018-07-06T16:21:19.441Z,3.63
2018-07-06T16:23:47.961Z,3.90
2018-07-06T16:26:16.422Z,3.80
2018-07-06T16:28:44.832Z,3.10
2018-07-06T16:31:13.237Z,4.00
2018-07-06T16:33:41.727Z,3.27
2018-07-06T16:36:10.125Z,3.40
2018-07-06T16:38:38.540Z,3.13
2018-07-06T16:41:07.548Z,3.83
2018-07-06T16:43:35.996Z,3.47
2018-07-06T16:46:04.440Z,3.37
2018-07-06T16:48:32.844Z,4.00
2018-07-06T16:51:01.762Z,3.20
2018-07-06T16:53:30.212Z,3.50
2018-07-06T16:55:58.591Z,3.80
2018-07-06T16:58:27.319Z,3.60
2018-07-06T17:00:55.801Z,3.63
2018-07-06T17:03:24.189Z,3.70
2018-07-06T17:05:52.730Z,3.63
2018-07-06T17:08:21.136Z,3.90
2018-07-06T17:10:49.589Z,4.13
2018-07-06T17:13:17.980Z,3.50
2018-07-06T17:15:46.416Z,3.73
2018-07-06T17:18:14.872Z,3.40
2018-07-06T17:20:43.376Z,3.37
2018-07-06T17:23:11.773Z,3.90
2018-07-06T17:25:40.420Z,3.47
2018-07-06T17:28:08.841Z,3.67
2018-07-06T17:30:37.240Z,4.00
2018-07-06T17:33:05.828Z,3.77
2018-07-06T17:35:34.250Z,3.70
2018-07-06T17:38:02.718Z,3.90
2018-07-06T17:40:31.121Z,3.40
2018-07-06T17:42:59.544Z,3.70
2018-07-06T17:45:28.004Z,3.53
2018-07-06T17:47:56.417Z,3.70
2018-07-06T17:50:24.912Z,3.77
2018-07-06T17:52:53.264Z,3.80
2018-07-06T17:55:21.985Z,3.30
2018-07-06T17:57:50.398Z,4.10
2018-07-06T18:00:18.861Z,3.83
2018-07-06T18:02:47.303Z,4.40
2018-07-06T18:05:15.732Z,4.27
2018-07-06T18:07:44.251Z,3.90
2018-07-06T18:10:12.677Z,3.20
2018-07-06T18:12:41.135Z,3.67
2018-07-06T18:15:09.561Z,3.83
2018-07-06T18:17:38.219Z,3.60
2018-07-06T18:20:06.986Z,3.67
2018-07-06T18:22:35.809Z,3.80
2018-07-06T18:25:04.415Z,4.27
2018-07-06T18:27:32.853Z,4.83
2018-07-06T18:30:01.385Z,3.80
2018-07-06T18:32:30.268Z,4.20
2018-07-06T18:34:58.726Z,4.20
2018-07-06T18:37:27.209Z,4.07
2018-07-06T18:39:55.720Z,3.90
2018-07-06T18:42:24.164Z,5.17
2018-07-06T18:44:52.583Z,4.50
2018-07-06T18:47:21.084Z,3.70
2018-07-06T18:49:49.786Z,4.50
2018-07-06T18:52:18.219Z,3.77
2018-07-06T18:54:46.724Z,4.00
2018-07-06T18:57:15.171Z,3.93
2018-07-06T18:59:43.616Z,4.93
2018-07-06T19:02:12.058Z,4.10
2018-07-06T19:04:40.533Z,4.07
2018-07-06T19:07:09.021Z,3.90
2018-07-06T19:09:37.449Z,3.80
2018-07-06T19:12:05.922Z,3.50
2018-07-06T19:14:34.664Z,3.87
2018-07-06T19:17:03.043Z,3.93
2018-07-06T19:19:31.562Z,4.10
2018-07-06T19:22:00.147Z,4.43
2018-07-06T19:24:28.277Z,3.80
2018-07-06T19:26:56.697Z,4.23
2018-07-06T19:29:25.221Z,4.70
2018-07-06T19:31:53.642Z,6.00
2018-07-06T19:34:21.810Z,6.60
2018-07-06T19:36:50.318Z,5.33
2018-07-06T19:39:18.903Z,5.03
2018-07-06T19:41:47.771Z,4.73
2018-07-06T19:44:17.017Z,4.23
2018-07-06T19:46:45.441Z,4.00
2018-07-06T19:49:14.096Z,4.67
2018-07-06T19:51:42.633Z,4.30
2018-07-06T19:54:11.126Z,3.80
2018-07-06T19:56:39.628Z,3.47
2018-07-06T19:59:08.053Z,4.20
2018-07-06T20:01:36.548Z,4.30
2018-07-06T20:04:05.025Z,4.23
2018-07-06T20:06:33.676Z,4.57
2018-07-06T20:09:02.138Z,4.47
2018-07-06T20:11:30.637Z,3.77
2018-07-06T20:13:59.176Z,3.90
2018-07-06T20:16:27.625Z,3.80
2018-07-06T20:18:56.593Z,4.03
2018-07-06T20:21:25.129Z,4.37
2018-07-06T20:23:53.532Z,4.20
2018-07-06T20:26:22.113Z,3.60
2018-07-06T20:28:50.688Z,3.77
2018-07-06T20:31:19.174Z,3.40
2018-07-06T20:33:47.625Z,4.50
2018-07-06T20:36:16.253Z,4.23
2018-07-06T20:38:44.804Z,3.60
2018-07-06T20:41:13.275Z,3.90
2018-07-06T20:43:41.784Z,3.67
2018-07-06T20:46:10.352Z,4.10
2018-07-06T20:48:38.807Z,3.90
2018-07-06T20:51:07.216Z,4.00
2018-07-06T20:53:35.845Z,4.20
2018-07-06T20:56:04.288Z,4.50
2018-07-06T20:58:32.785Z,4.43
2018-07-06T21:01:01.197Z,4.00
2018-07-06T21:03:29.621Z,4.43
2018-07-06T21:05:58.117Z,4.70
2018-07-06T21:08:26.556Z,4.07
2018-07-06T21:10:55.032Z,3.93
2018-07-06T21:13:23.569Z,3.77
2018-07-06T21:15:51.965Z,3.67
2018-07-06T21:18:20.418Z,4.20
2018-07-06T21:20:48.984Z,3.80
2018-07-06T21:23:17.544Z,3.83
2018-07-06T21:25:45.961Z,3.60
2018-07-06T21:28:14.569Z,3.90
2018-07-06T21:30:43.133Z,3.53
2018-07-06T21:33:11.557Z,3.60
2018-07-06T21:35:40.017Z,3.87
2018-07-06T21:38:08.501Z,4.37
2018-07-06T21:40:37.151Z,3.50
2018-07-06T21:43:05.573Z,4.40
2018-07-06T21:45:34.236Z,4.37
2018-07-06T21:48:02.923Z,3.90
2018-07-06T21:50:31.273Z,4.23
2018-07-06T21:52:59.986Z,4.00
2018-07-06T21:55:28.161Z,3.80
2018-07-06T21:57:56.538Z,3.83
2018-07-06T22:00:33.477Z,3.70
2018-07-06T22:03:02.056Z,4.00
2018-07-06T22:05:30.538Z,4.20
2018-07-06T22:07:58.920Z,3.50
2018-07-06T22:10:27.521Z,3.93
2018-07-06T22:12:55.932Z,4.10
2018-07-06T22:15:28.893Z,4.20
2018-07-06T22:17:57.546Z,3.87
2018-07-06T22:20:25.921Z,4.27
2018-07-06T22:22:54.488Z,3.67
2018-07-06T22:25:22.924Z,4.00
2018-07-06T22:27:51.064Z,4.23
2018-07-06T22:30:19.528Z,4.27
2018-07-06T22:32:48.139Z,4.00
2018-07-06T22:35:16.785Z,4.17
2018-07-06T22:37:45.908Z,4.00
2018-07-06T22:40:15.917Z,4.17
2018-07-06T22:42:44.685Z,4.30
2018-07-06T22:45:13.687Z,4.33
2018-07-06T22:47:42.198Z,4.00
2018-07-06T22:50:11.164Z,3.73
2018-07-06T22:52:39.579Z,3.53
2018-07-06T22:55:08.224Z,3.87
2018-07-06T22:57:36.809Z,4.20
2018-07-06T23:00:05.247Z,4.00
2018-07-06T23:02:33.964Z,4.17
2018-07-06T23:05:15.524Z,3.63
2018-07-06T23:07:43.941Z,3.67
2018-07-06T23:10:12.756Z,3.47
2018-07-06T23:12:41.524Z,3.57
2018-07-06T23:15:09.934Z,3.90
2018-07-06T23:17:38.377Z,3.93
2018-07-06T23:20:07.373Z,3.90
2018-07-06T23:23:18.694Z,3.90
2018-07-06T23:25:48.356Z,3.73
2018-07-06T23:28:17.162Z,4.10
2018-07-06T23:30:45.629Z,3.90
2018-07-06T23:33:14.210Z,4.07
2018-07-06T23:35:42.632Z,3.83
2018-07-06T23:38:10.823Z,4.53
2018-07-06T23:40:39.465Z,4.80
2018-07-06T23:43:07.869Z,5.20
2018-07-06T23:45:36.481Z,4.93
2018-07-06T23:48:04.980Z,4.80
2018-07-06T23:50:33.397Z,5.90
2018-07-06T23:53:01.832Z,4.53
2018-07-06T23:55:30.488Z,5.07
2018-07-06T23:57:58.868Z,4.87
